Time;durP1;ratioP1;P1;durP2;ratioP2;P2;SDS_P1;SDS_P2;PMS_P1;PMS_P2;Temp;Humidity;BMP_temperature;BMP_pressure;BME280_temperature;BME280_humidity;BME280_pressure;Samples;Min_cycle;Max_cycle;Signal;HPM_P1;HPM_P2
2022/05/15 00:02:29;;;;;;;14.40;3.95;;;9.40;99.90;;;;;;4955671;28;20043;-75
2022/05/15 00:04:55;;;;;;;11.48;4.40;;;9.30;99.90;;;;;;4955779;28;20049;-76
2022/05/15 00:07:21;;;;;;;16.75;4.47;;;9.30;99.90;;;;;;4971889;28;20039;-76
2022/05/15 00:09:47;;;;;;;13.15;4.93;;;9.30;99.90;;;;;;4948953;28;20118;-76
2022/05/15 00:12:13;;;;;;;18.70;4.95;;;9.20;99.90;;;;;;4947200;28;20131;-76
2022/05/15 00:14:39;;;;;;;15.43;4.93;;;9.10;99.90;;;;;;4971219;28;20045;-76
2022/05/15 00:17:05;;;;;;;11.40;4.32;;;9.10;99.90;;;;;;4955322;28;20043;-76
2022/05/15 00:19:31;;;;;;;12.75;4.35;;;9.20;99.90;;;;;;4955268;28;20043;-76
2022/05/15 00:21:56;;;;;;;12.38;4.47;;;9.20;99.90;;;;;;4954262;28;20425;-76
2022/05/15 00:24:22;;;;;;;12.15;4.35;;;9.20;99.90;;;;;;4947231;28;20042;-76
2022/05/15 00:26:48;;;;;;;12.77;4.35;;;9.20;99.90;;;;;;4954609;28;20046;-76
2022/05/15 00:29:14;;;;;;;14.85;4.60;;;9.20;99.90;;;;;;4944510;28;20054;-76
2022/05/15 00:31:39;;;;;;;17.95;4.82;;;9.20;99.90;;;;;;4954981;28;20070;-75
2022/05/15 00:34:05;;;;;;;15.48;5.00;;;9.20;99.90;;;;;;4953306;28;20090;-76
2022/05/15 00:36:31;;;;;;;16.63;5.65;;;9.30;99.90;;;;;;4936085;28;20049;-76
2022/05/15 00:38:58;;;;;;;16.10;4.70;;;9.20;99.90;;;;;;4978897;28;20560;-76
2022/05/15 00:41:25;;;;;;;17.42;4.30;;;9.10;99.90;;;;;;4970767;28;20125;-76
2022/05/15 00:43:54;;;;;;;16.75;4.90;;;9.10;99.90;;;;;;4952280;28;20038;-76
2022/05/15 00:46:29;;;;;;;12.90;4.60;;;9.00;99.90;;;;;;4946564;28;20054;-76
2022/05/15 00:48:57;;;;;;;13.05;3.88;;;9.10;99.90;;;;;;4965189;28;20058;-76
2022/05/15 00:51:42;;;;;;;12.57;4.40;;;9.00;99.90;;;;;;4946489;28;20126;-76
2022/05/15 00:54:17;;;;;;;10.57;3.92;;;8.90;99.90;;;;;;4941521;28;20524;-76
2022/05/15 00:56:49;;;;;;;8.98;3.70;;;8.80;99.90;;;;;;4960135;28;20498;-76
2022/05/15 00:59:19;;;;;;;12.18;4.22;;;8.70;99.90;;;;;;4975522;28;20114;-76
2022/05/15 01:01:45;;;;;;;13.60;4.30;;;8.60;99.90;;;;;;4959004;28;20489;-76
2022/05/15 01:04:11;;;;;;;11.57;4.32;;;8.60;99.90;;;;;;4957998;28;20109;-76
2022/05/15 01:06:38;;;;;;;11.25;3.97;;;8.50;99.90;;;;;;4958357;28;20069;-76
2022/05/15 01:09:05;;;;;;;13.80;4.40;;;8.30;99.90;;;;;;4962198;28;20548;-76
2022/05/15 01:11:33;;;;;;;13.18;4.25;;;8.30;99.90;;;;;;4958376;28;20134;-76
2022/05/15 01:14:05;;;;;;;13.57;4.50;;;8.30;99.90;;;;;;4942819;28;20458;-76
2022/05/15 01:16:32;;;;;;;14.20;4.32;;;8.20;99.90;;;;;;4957897;28;20050;-76
2022/05/15 01:18:59;;;;;;;9.82;4.07;;;8.20;99.90;;;;;;4950408;28;20043;-76
2022/05/15 01:21:28;;;;;;;12.77;4.60;;;8.20;99.90;;;;;;4941989;28;20489;-76
2022/05/15 01:23:54;;;;;;;13.48;4.45;;;8.10;99.90;;;;;;4957484;28;20430;-76
2022/05/15 01:26:22;;;;;;;13.70;4.30;;;8.00;99.90;;;;;;4964736;28;20066;-76
2022/05/15 01:28:48;;;;;;;13.07;4.70;;;8.00;99.90;;;;;;4941456;28;20035;-76
2022/05/15 01:31:14;;;;;;;14.52;4.43;;;7.90;99.90;;;;;;4942384;28;20493;-76
2022/05/15 01:33:40;;;;;;;9.65;3.78;;;7.80;99.90;;;;;;4942193;28;20043;-76
2022/05/15 01:36:07;;;;;;;13.32;4.20;;;7.70;99.90;;;;;;4957813;28;20047;-75
2022/05/15 01:38:33;;;;;;;10.75;4.05;;;7.70;99.90;;;;;;4962007;28;20031;-76
2022/05/15 01:40:59;;;;;;;11.73;4.25;;;7.60;99.90;;;;;;4957228;28;20456;-76
2022/05/15 01:43:25;;;;;;;12.60;4.78;;;7.60;99.90;;;;;;4941887;28;20042;-76
2022/05/15 01:45:50;;;;;;;11.30;4.20;;;7.50;99.90;;;;;;4957828;28;20057;-76
2022/05/15 01:48:16;;;;;;;9.90;4.30;;;7.50;99.90;;;;;;4941245;28;20450;-76
2022/05/15 01:50:42;;;;;;;11.60;4.65;;;7.40;99.90;;;;;;4956840;28;20502;-76
2022/05/15 01:53:08;;;;;;;14.93;5.47;;;7.40;99.90;;;;;;4973461;28;20055;-76
2022/05/15 01:55:34;;;;;;;11.07;4.45;;;7.40;99.90;;;;;;4956908;28;20532;-75
2022/05/15 01:57:59;;;;;;;11.02;4.45;;;7.30;99.90;;;;;;4957306;28;20046;-76
2022/05/15 02:00:27;;;;;;;11.27;4.20;;;7.30;99.90;;;;;;4955693;28;20031;-76
2022/05/15 02:02:53;;;;;;;14.63;4.85;;;7.30;99.90;;;;;;4949332;28;20045;-76
2022/05/15 02:05:20;;;;;;;11.43;4.45;;;7.30;99.90;;;;;;4960334;28;20129;-75
2022/05/15 02:07:47;;;;;;;12.82;4.45;;;7.20;99.90;;;;;;4959779;28;20520;-76
2022/05/15 02:10:13;;;;;;;12.07;4.78;;;7.10;99.90;;;;;;4959238;28;20094;-76
2022/05/15 02:12:39;;;;;;;11.57;4.65;;;7.20;99.90;;;;;;4957272;28;20039;-76
2022/05/15 02:15:06;;;;;;;14.52;4.45;;;7.10;99.90;;;;;;4940756;28;20053;-76
2022/05/15 02:17:32;;;;;;;8.35;4.68;;;7.10;99.90;;;;;;4940606;28;20042;-76
2022/05/15 02:19:59;;;;;;;10.95;4.85;;;7.00;99.90;;;;;;4973379;28;20137;-76
2022/05/15 02:22:24;;;;;;;10.85;4.32;;;7.00;99.90;;;;;;4957314;28;20145;-76
2022/05/15 02:24:50;;;;;;;9.82;4.47;;;7.00;99.90;;;;;;4955460;28;20071;-76
2022/05/15 02:27:16;;;;;;;12.07;4.70;;;6.90;99.90;;;;;;4956909;28;20046;-76
2022/05/15 02:29:42;;;;;;;13.77;4.95;;;6.90;99.90;;;;;;4945137;28;20394;-76
2022/05/15 02:32:08;;;;;;;12.02;5.32;;;6.90;99.90;;;;;;4970625;28;20482;-76
2022/05/15 02:34:34;;;;;;;13.30;5.07;;;6.80;99.90;;;;;;4954914;28;20039;-76
2022/05/15 02:37:00;;;;;;;14.90;5.78;;;6.80;99.90;;;;;;4922063;28;20098;-76
2022/05/15 02:39:25;;;;;;;11.77;4.63;;;6.80;99.90;;;;;;4922110;29;20039;-76
2022/05/15 02:41:51;;;;;;;16.05;4.63;;;6.80;99.90;;;;;;4929158;28;20081;-75
2022/05/15 02:44:17;;;;;;;12.32;5.20;;;6.70;99.90;;;;;;4947407;28;20043;-76
2022/05/15 02:46:44;;;;;;;9.25;4.30;;;6.70;99.90;;;;;;4965227;28;20548;-77
2022/05/15 02:51:56;;;;;;;10.98;4.15;;;6.70;99.90;;;;;;4972451;28;20081;-77
2022/05/15 02:54:22;;;;;;;8.55;4.00;;;6.70;99.90;;;;;;4962796;28;20078;-74
2022/05/15 02:56:48;;;;;;;8.00;4.20;;;6.60;99.90;;;;;;4954777;28;20042;-76
2022/05/15 02:59:14;;;;;;;8.45;4.25;;;6.60;99.90;;;;;;4945494;28;20129;-77
2022/05/15 03:01:40;;;;;;;11.95;4.10;;;6.60;99.90;;;;;;4944942;28;20411;-75
2022/05/15 03:04:07;;;;;;;11.18;3.90;;;6.60;99.90;;;;;;4971351;28;20130;-76
2022/05/15 03:06:33;;;;;;;8.88;4.13;;;6.40;99.90;;;;;;4940454;28;20042;-76
2022/05/15 03:08:59;;;;;;;10.82;4.40;;;6.50;99.90;;;;;;4955773;28;20489;-76
2022/05/15 03:11:26;;;;;;;11.45;4.22;;;6.40;99.90;;;;;;4940139;28;20034;-76
2022/05/15 03:13:52;;;;;;;9.70;4.15;;;6.40;99.90;;;;;;4940626;28;20042;-76
2022/05/15 03:16:18;;;;;;;8.80;4.03;;;6.40;99.90;;;;;;4939966;28;20055;-76
2022/05/15 03:18:55;;;;;;;10.40;4.20;;;6.40;99.90;;;;;;4939064;28;20501;-75
2022/05/15 03:21:30;;;;;;;10.95;4.60;;;6.40;99.90;;;;;;4938551;28;20445;-75
2022/05/15 03:24:00;;;;;;;8.15;4.10;;;6.40;99.90;;;;;;4940071;28;20125;-74
2022/05/15 03:26:27;;;;;;;10.18;4.45;;;6.40;99.90;;;;;;4938665;28;20043;-75
2022/05/15 03:28:56;;;;;;;9.02;4.05;;;6.40;99.90;;;;;;4939440;28;20046;-75
2022/05/15 03:31:25;;;;;;;12.18;4.47;;;6.30;99.90;;;;;;4954509;28;20046;-76
2022/05/15 03:33:53;;;;;;;9.10;4.53;;;6.30;99.90;;;;;;4939692;28;20041;-76
2022/05/15 03:36:22;;;;;;;7.57;4.13;;;6.30;99.90;;;;;;4940150;28;20070;-77
2022/05/15 03:38:48;;;;;;;11.48;4.30;;;6.30;99.90;;;;;;4940391;28;20122;-78
2022/05/15 03:41:17;;;;;;;13.45;5.25;;;6.30;99.90;;;;;;4940175;28;20382;-77
2022/05/15 03:43:43;;;;;;;11.82;4.18;;;6.20;99.90;;;;;;4956423;28;20074;-77
2022/05/15 03:46:11;;;;;;;9.75;5.10;;;6.30;99.90;;;;;;4940754;28;20144;-77
2022/05/15 03:48:37;;;;;;;10.95;4.80;;;6.20;99.90;;;;;;4972398;28;20133;-77
2022/05/15 03:51:06;;;;;;;13.10;5.57;;;6.30;99.90;;;;;;4941263;28;20038;-77
2022/05/15 03:53:32;;;;;;;10.60;4.82;;;6.30;99.90;;;;;;4940753;28;20043;-77
2022/05/15 03:56:02;;;;;;;12.63;4.40;;;6.30;99.90;;;;;;4940486;28;20149;-77
2022/05/15 03:58:30;;;;;;;14.60;4.18;;;6.30;99.90;;;;;;4956090;28;20055;-78
2022/05/15 04:00:56;;;;;;;12.88;4.63;;;6.30;99.90;;;;;;4972660;28;20081;-77
2022/05/15 04:03:22;;;;;;;13.38;4.43;;;6.30;99.90;;;;;;4956654;28;20494;-78
2022/05/15 04:05:51;;;;;;;14.10;5.25;;;6.30;99.90;;;;;;4941089;28;20097;-78
2022/05/15 04:08:17;;;;;;;13.93;4.70;;;6.40;99.90;;;;;;4940746;28;20046;-78
2022/05/15 04:10:46;;;;;;;12.90;5.47;;;6.30;99.90;;;;;;4941467;28;20409;-78
2022/05/15 04:13:15;;;;;;;12.75;4.97;;;6.30;99.90;;;;;;4941198;28;20114;-77
2022/05/15 04:15:41;;;;;;;10.45;4.82;;;6.40;99.90;;;;;;4940927;28;20051;-77
2022/05/15 04:18:09;;;;;;;19.77;5.65;;;6.40;99.90;;;;;;4941024;28;20038;-78
2022/05/15 04:20:35;;;;;;;17.73;5.90;;;6.50;99.90;;;;;;4972638;28;20054;-77
2022/05/15 04:23:00;;;;;;;20.85;6.25;;;6.60;99.90;;;;;;4972432;28;20034;-77
2022/05/15 04:25:26;;;;;;;21.45;6.60;;;6.70;99.90;;;;;;4941067;28;20089;-77
2022/05/15 04:27:52;;;;;;;18.17;6.75;;;6.80;99.90;;;;;;4940267;28;20177;-78
2022/05/15 04:30:23;;;;;;;21.70;8.80;;;7.00;99.90;;;;;;4972935;28;20102;-77
2022/05/15 04:32:56;;;;;;;24.02;8.25;;;7.20;99.90;;;;;;4957226;28;20383;-77
2022/05/15 04:35:23;;;;;;;22.02;7.15;;;7.40;99.90;;;;;;4965499;28;20046;-78
2022/05/15 04:37:51;;;;;;;21.52;8.55;;;7.60;99.90;;;;;;4943373;28;20570;-77
2022/05/15 04:40:20;;;;;;;21.15;8.07;;;7.80;99.90;;;;;;4949355;28;20046;-77
2022/05/15 04:42:46;;;;;;;19.25;7.57;;;8.10;99.90;;;;;;4950805;28;20043;-77
2022/05/15 04:45:15;;;;;;;21.55;7.38;;;8.40;99.90;;;;;;4950916;28;20042;-77
2022/05/15 04:47:46;;;;;;;14.55;6.43;;;8.80;99.90;;;;;;4967333;28;20504;-78
2022/05/15 04:50:14;;;;;;;11.00;5.57;;;9.30;99.90;;;;;;4942116;28;20046;-78
2022/05/15 04:52:39;;;;;;;12.18;5.53;;;9.50;99.90;;;;;;4939951;28;20042;-78
2022/05/15 04:55:06;;;;;;;13.90;5.30;;;9.60;99.90;;;;;;4939738;28;20558;-77
2022/05/15 04:57:32;;;;;;;12.73;5.68;;;9.70;99.90;;;;;;4939165;28;20126;-78
2022/05/15 05:00:00;;;;;;;14.75;6.30;;;9.70;99.90;;;;;;4939670;28;20043;-77
2022/05/15 05:02:25;;;;;;;12.13;5.55;;;9.90;99.90;;;;;;4939797;28;20031;-78
2022/05/15 05:04:55;;;;;;;13.82;5.32;;;10.40;99.90;;;;;;4955277;28;20038;-77
2022/05/15 05:07:24;;;;;;;16.65;5.32;;;10.80;99.90;;;;;;4939865;28;20098;-78
2022/05/15 05:09:51;;;;;;;13.73;4.97;;;11.20;99.90;;;;;;4955335;28;20046;-78
2022/05/15 05:12:20;;;;;;;10.93;4.50;;;11.60;99.90;;;;;;4939276;28;20050;-78
2022/05/15 05:14:46;;;;;;;15.27;4.45;;;12.10;99.90;;;;;;4939275;28;20043;-78
2022/05/15 05:17:12;;;;;;;11.77;4.30;;;12.40;99.90;;;;;;4939273;28;20047;-78
2022/05/15 05:19:42;;;;;;;9.10;4.15;;;12.50;99.90;;;;;;4939108;28;20042;-78
2022/05/15 05:22:08;;;;;;;9.90;4.13;;;12.60;99.90;;;;;;4939045;28;20042;-78
2022/05/15 05:24:35;;;;;;;11.10;4.57;;;12.80;99.90;;;;;;4955279;28;20081;-78
2022/05/15 05:27:04;;;;;;;10.85;3.97;;;13.10;99.90;;;;;;4979995;28;20042;-77
2022/05/15 05:29:30;;;;;;;10.25;4.00;;;13.20;99.90;;;;;;4943999;28;20042;-77
2022/05/15 05:31:56;;;;;;;11.77;3.78;;;13.30;99.90;;;;;;4941196;28;20493;-78
2022/05/15 05:34:22;;;;;;;8.65;3.55;;;13.40;99.90;;;;;;4940970;28;20477;-77
2022/05/15 05:36:48;;;;;;;10.63;3.83;;;13.40;99.90;;;;;;4941118;28;20047;-78
2022/05/15 05:39:14;;;;;;;9.55;3.83;;;13.50;99.90;;;;;;4972745;28;20497;-78
2022/05/15 05:41:42;;;;;;;8.63;3.60;;;13.50;99.90;;;;;;4944232;28;20521;-78
2022/05/15 05:44:11;;;;;;;10.65;4.10;;;13.50;99.90;;;;;;4943678;28;20054;-77
2022/05/15 05:46:40;;;;;;;10.55;3.95;;;13.30;99.90;;;;;;4943316;28;20074;-78
2022/05/15 05:49:06;;;;;;;11.98;4.22;;;13.10;99.90;;;;;;4943580;28;20101;-78
2022/05/15 05:51:32;;;;;;;12.93;3.65;;;12.80;99.90;;;;;;4943371;28;20084;-78
2022/05/15 05:53:58;;;;;;;11.90;4.15;;;12.70;99.90;;;;;;4942838;28;20465;-78
2022/05/15 05:56:26;;;;;;;10.63;3.70;;;12.60;99.90;;;;;;4942415;28;20042;-78
2022/05/15 05:58:51;;;;;;;11.43;4.10;;;12.50;99.90;;;;;;4942269;28;20045;-76
2022/05/15 06:01:20;;;;;;;11.93;3.67;;;12.50;99.90;;;;;;4942145;28;20035;-76
2022/05/15 06:06:51;;;;;;;10.85;4.05;;;12.60;99.90;;;;;;4957582;28;20394;-77
2022/05/15 06:09:18;;;;;;;9.48;3.65;;;12.60;99.90;;;;;;4941370;28;20050;-77
2022/05/15 06:11:43;;;;;;;11.18;3.92;;;12.70;99.90;;;;;;4941628;28;20043;-76
2022/05/15 06:14:12;;;;;;;13.02;3.78;;;12.70;99.90;;;;;;4941595;28;20050;-77
2022/05/15 06:16:38;;;;;;;12.23;4.38;;;12.70;99.90;;;;;;4941025;28;20101;-76
2022/05/15 06:19:04;;;;;;;14.35;4.28;;;12.80;99.90;;;;;;4941327;28;20097;-76
2022/05/15 06:21:33;;;;;;;10.65;3.72;;;12.90;99.90;;;;;;4941675;28;20042;-76
2022/05/15 06:24:04;;;;;;;9.90;3.72;;;13.00;99.90;;;;;;4941432;28;20073;-76
2022/05/15 06:26:34;;;;;;;9.95;3.40;;;13.20;99.90;;;;;;4957624;28;20047;-76
2022/05/15 06:29:03;;;;;;;9.63;3.53;;;13.20;99.90;;;;;;4941313;28;20077;-76
2022/05/15 06:31:29;;;;;;;9.52;3.08;;;13.40;99.90;;;;;;4941231;28;20051;-76
2022/05/15 06:33:58;;;;;;;9.75;3.97;;;13.50;99.90;;;;;;4957089;28;20057;-76
2022/05/15 06:36:27;;;;;;;11.20;3.38;;;13.60;99.90;;;;;;4941063;28;20047;-77
2022/05/15 06:38:53;;;;;;;9.35;3.33;;;13.60;99.90;;;;;;4956885;28;20043;-76
2022/05/15 06:41:19;;;;;;;10.70;3.42;;;13.80;99.90;;;;;;4941288;28;20057;-76
2022/05/15 06:43:47;;;;;;;10.80;2.97;;;13.90;99.90;;;;;;4941195;28;20042;-76
2022/05/15 06:46:25;;;;;;;11.00;3.42;;;14.00;99.90;;;;;;4940868;28;20035;-76
2022/05/15 06:48:51;;;;;;;12.98;3.72;;;14.10;99.90;;;;;;4940982;28;20046;-76
2022/05/15 06:51:17;;;;;;;12.50;2.83;;;14.20;99.90;;;;;;4940465;28;20051;-76
2022/05/15 06:53:47;;;;;;;10.07;2.63;;;14.30;99.90;;;;;;4940918;28;20097;-76
2022/05/15 06:59:02;;;;;;;9.43;2.90;;;14.60;99.90;;;;;;4956493;28;20051;-77
2022/05/15 07:01:28;;;;;;;7.15;2.58;;;14.60;99.90;;;;;;4941018;28;20038;-76
2022/05/15 07:03:54;;;;;;;10.40;2.75;;;14.70;99.90;;;;;;4940761;28;20508;-76
2022/05/15 07:06:20;;;;;;;10.55;2.63;;;14.80;99.90;;;;;;4940660;28;20039;-76
2022/05/15 07:08:48;;;;;;;10.48;3.10;;;15.00;99.90;;;;;;4940072;28;20130;-76
2022/05/15 07:11:14;;;;;;;10.63;3.38;;;15.00;99.90;;;;;;4972909;28;20517;-76
2022/05/15 07:13:42;;;;;;;6.07;2.75;;;15.10;99.90;;;;;;4940318;28;20043;-76
2022/05/15 07:16:14;;;;;;;9.82;2.75;;;15.20;99.90;;;;;;4956112;28;20058;-76
2022/05/15 07:18:40;;;;;;;10.50;3.17;;;15.30;99.90;;;;;;4956470;28;20046;-77
2022/05/15 07:21:06;;;;;;;8.90;2.90;;;15.40;99.90;;;;;;4956207;28;20043;-76
2022/05/15 07:23:31;;;;;;;7.93;2.70;;;15.50;99.90;;;;;;4940240;28;20039;-76
2022/05/15 07:26:00;;;;;;;9.10;2.75;;;15.60;99.90;;;;;;4972724;28;20047;-77
2022/05/15 07:28:28;;;;;;;8.93;2.80;;;15.80;99.90;;;;;;4955751;28;20046;-76
2022/05/15 07:30:54;;;;;;;8.45;3.30;;;15.80;99.90;;;;;;4972410;28;20128;-76
2022/05/15 07:33:26;;;;;;;9.98;3.15;;;16.00;99.90;;;;;;4940099;28;20054;-77
2022/05/15 07:35:53;;;;;;;9.57;2.90;;;16.10;99.90;;;;;;4940387;28;20074;-77
2022/05/15 07:38:22;;;;;;;8.57;3.17;;;16.10;99.90;;;;;;4955689;28;20047;-76
2022/05/15 07:40:48;;;;;;;9.23;2.78;;;16.20;99.90;;;;;;4939730;28;20046;-77
2022/05/15 07:43:14;;;;;;;6.53;2.28;;;16.30;99.90;;;;;;4956019;28;20101;-77
2022/05/15 07:45:40;;;;;;;9.20;2.67;;;16.50;99.90;;;;;;4939316;28;20057;-77
2022/05/15 07:48:12;;;;;;;8.80;3.17;;;16.60;99.90;;;;;;4939574;28;20046;-77
2022/05/15 07:50:38;;;;;;;9.25;2.75;;;16.70;99.90;;;;;;4939745;28;20089;-76
2022/05/15 07:53:04;;;;;;;11.07;3.05;;;16.90;99.90;;;;;;4955614;28;20125;-76
2022/05/15 07:55:30;;;;;;;9.77;3.17;;;17.00;99.90;;;;;;4939249;28;20050;-76
2022/05/15 07:58:04;;;;;;;12.10;3.17;;;17.20;99.90;;;;;;4939482;28;20034;-76
2022/05/15 08:00:35;;;;;;;8.90;2.90;;;17.30;99.90;;;;;;4939565;28;20445;-76
2022/05/15 08:03:10;;;;;;;7.53;2.45;;;17.40;99.90;;;;;;4971885;28;20101;-77
2022/05/15 08:08:23;;;;;;;9.77;3.10;;;17.80;99.90;;;;;;4955043;28;20118;-77
2022/05/15 08:10:50;;;;;;;8.45;2.70;;;18.50;99.30;;;;;;4939214;28;20050;-77
2022/05/15 08:13:28;;;;;;;7.88;2.35;;;19.20;99.90;;;;;;4939601;28;20042;-77
2022/05/15 08:15:54;;;;;;;7.78;2.50;;;20.10;96.60;;;;;;4939182;28;20473;-77
2022/05/15 08:24:01;;;;;;;9.32;2.65;;;22.20;90.90;;;;;;4955162;28;20039;-77
2022/05/15 08:26:30;;;;;;;7.25;2.75;;;22.50;74.70;;;;;;4939244;28;20057;-77
2022/05/15 08:28:55;;;;;;;10.52;2.97;;;22.50;73.60;;;;;;4938721;28;20043;-77
2022/05/15 08:31:26;;;;;;;8.02;2.53;;;22.50;72.70;;;;;;4939503;28;20041;-77
2022/05/15 08:33:55;;;;;;;8.13;2.63;;;22.80;73.10;;;;;;4939351;28;20074;-77
2022/05/15 08:36:23;;;;;;;6.03;2.45;;;23.10;64.30;;;;;;4939140;28;20300;-77
2022/05/15 08:38:51;;;;;;;7.75;2.47;;;23.10;65.50;;;;;;4938752;28;20047;-77
2022/05/15 08:41:33;;;;;;;9.00;2.90;;;23.30;60.90;;;;;;4939411;28;20034;-77
2022/05/15 08:44:29;;;;;;;6.82;2.35;;;23.30;60.10;;;;;;4955531;28;20093;-77
2022/05/15 08:47:23;;;;;;;7.85;2.42;;;23.50;64.40;;;;;;4955087;28;20384;-78
2022/05/15 08:50:02;;;;;;;10.68;2.88;;;24.00;62.10;;;;;;4954648;28;20050;-77
2022/05/15 08:52:50;;;;;;;7.38;2.53;;;24.50;56.50;;;;;;4954810;28;20138;-77
2022/05/15 08:55:21;;;;;;;10.13;2.95;;;24.60;54.80;;;;;;4955101;28;20046;-77
2022/05/15 08:57:55;;;;;;;7.43;2.60;;;24.60;55.10;;;;;;4954998;28;20452;-77
2022/05/15 09:00:43;;;;;;;7.22;2.30;;;24.80;57.00;;;;;;4938880;28;20042;-77
2022/05/15 09:03:25;;;;;;;7.55;2.70;;;25.00;51.60;;;;;;4938224;28;20062;-77
2022/05/15 09:06:19;;;;;;;8.67;3.17;;;24.90;51.20;;;;;;4968777;28;20043;-77
2022/05/15 09:09:04;;;;;;;6.97;2.42;;;24.80;54.20;;;;;;4970282;28;20513;-77
2022/05/15 09:11:55;;;;;;;8.88;2.42;;;24.90;50.00;;;;;;4935668;29;20043;-77
2022/05/15 09:14:23;;;;;;;7.75;2.88;;;24.70;52.70;;;;;;4921263;29;20043;-77
2022/05/15 09:17:17;;;;;;;7.65;2.63;;;24.90;51.90;;;;;;4939341;28;20083;-77
2022/05/15 09:19:50;;;;;;;7.70;2.90;;;24.90;51.60;;;;;;4955474;28;20047;-77
2022/05/15 09:22:17;;;;;;;8.57;2.80;;;25.00;54.40;;;;;;4939589;29;20046;-77
2022/05/15 09:24:51;;;;;;;9.90;3.00;;;25.60;54.50;;;;;;4923646;28;20035;-77
2022/05/15 09:27:20;;;;;;;8.73;2.85;;;26.10;48.00;;;;;;4956465;28;20051;-77
2022/05/15 09:29:57;;;;;;;7.88;2.78;;;25.90;49.20;;;;;;4923602;29;20047;-77
2022/05/15 09:32:35;;;;;;;8.77;2.50;;;25.80;48.20;;;;;;4939524;29;20124;-77
2022/05/15 09:35:06;;;;;;;7.85;2.80;;;25.60;49.70;;;;;;4939104;29;20047;-77
2022/05/15 09:40:40;;;;;;;7.65;2.45;;;25.80;51.10;;;;;;4955303;28;20106;-78
2022/05/15 09:43:31;;;;;;;10.73;2.95;;;26.20;48.80;;;;;;4939170;29;20541;-77
2022/05/15 09:45:59;;;;;;;7.50;2.83;;;26.30;49.30;;;;;;4954996;28;20086;-77
2022/05/15 09:48:38;;;;;;;9.57;2.80;;;26.60;48.30;;;;;;4922867;29;20043;-79
2022/05/15 09:51:09;;;;;;;9.70;2.60;;;26.70;48.00;;;;;;4954861;28;20039;-77
2022/05/15 09:53:50;;;;;;;7.57;2.60;;;26.90;48.30;;;;;;4938947;29;20565;-77
2022/05/15 09:56:25;;;;;;;7.47;3.03;;;27.20;45.70;;;;;;4938443;28;20047;-77
2022/05/15 09:59:10;;;;;;;9.07;2.58;;;26.90;45.80;;;;;;4938644;29;20499;-79
2022/05/15 10:01:45;;;;;;;7.25;2.65;;;26.40;45.50;;;;;;4954502;28;20106;-78
2022/05/15 10:04:25;;;;;;;8.40;2.50;;;25.90;46.50;;;;;;4954689;28;20102;-78
2022/05/15 10:06:56;;;;;;;6.75;2.58;;;25.60;48.50;;;;;;4923223;28;20043;-77
2022/05/15 10:09:36;;;;;;;8.23;2.60;;;25.50;47.70;;;;;;4938726;29;20130;-77
2022/05/15 10:12:30;;;;;;;7.72;2.40;;;25.50;49.20;;;;;;4922464;29;20043;-77
2022/05/15 10:15:06;;;;;;;7.45;2.42;;;26.20;48.10;;;;;;4938319;29;20050;-78
2022/05/15 10:17:32;;;;;;;7.15;2.60;;;26.70;46.60;;;;;;4922614;29;20081;-78
2022/05/15 10:20:14;;;;;;;7.32;2.60;;;27.00;45.80;;;;;;4922445;29;20050;-80
2022/05/15 10:22:50;;;;;;;11.10;3.03;;;27.20;46.70;;;;;;4938566;29;20071;-78
2022/05/15 10:25:29;;;;;;;8.32;2.80;;;27.50;43.10;;;;;;4938089;28;20113;-77
2022/05/15 10:28:21;;;;;;;7.28;2.80;;;27.30;44.40;;;;;;4938091;29;20055;-77
2022/05/15 10:31:09;;;;;;;9.23;2.72;;;27.50;44.60;;;;;;4953560;28;20070;-78
2022/05/15 10:33:43;;;;;;;8.80;2.67;;;27.60;45.70;;;;;;4938209;29;20035;-78
2022/05/15 10:36:31;;;;;;;7.97;2.60;;;28.20;45.50;;;;;;4938171;29;20146;-78
2022/05/15 10:39:22;;;;;;;7.13;2.33;;;28.80;42.30;;;;;;4937870;29;20078;-78
2022/05/15 10:42:20;;;;;;;7.57;2.67;;;28.60;42.20;;;;;;4938086;29;20035;-78
2022/05/15 10:45:05;;;;;;;7.13;2.55;;;28.30;41.10;;;;;;4922062;28;20458;-78
2022/05/15 10:47:56;;;;;;;9.45;2.92;;;28.00;42.60;;;;;;4953871;28;20047;-78
2022/05/15 10:50:31;;;;;;;9.07;2.80;;;27.90;43.70;;;;;;4937844;28;20043;-78
2022/05/15 11:00:01;;;;;;;9.05;2.63;;;29.30;41.60;;;;;;4921111;28;20138;-77
2022/05/15 11:03:06;;;;;;;5.95;2.38;;;29.50;40.00;;;;;;4937616;29;20142;-78
2022/05/15 11:05:53;;;;;;;7.82;2.58;;;29.50;41.50;;;;;;4937508;29;20055;-78
2022/05/15 11:08:52;;;;;;;6.88;2.35;;;30.00;39.60;;;;;;4937533;29;20412;-79
2022/05/15 11:11:41;;;;;;;9.77;2.60;;;30.00;38.60;;;;;;4921526;28;20050;-78
2022/05/15 11:14:24;;;;;;;7.55;2.88;;;29.30;39.90;;;;;;4921295;29;20082;-80
2022/05/15 11:17:10;;;;;;;8.35;3.05;;;29.00;39.40;;;;;;4921836;29;20050;-77
2022/05/15 11:19:37;;;;;;;6.15;2.15;;;28.90;40.30;;;;;;4921025;28;20502;-78
2022/05/15 11:22:14;;;;;;;5.57;2.10;;;28.70;41.00;;;;;;4921831;29;20138;-78
2022/05/15 11:25:04;;;;;;;9.07;2.90;;;28.50;42.10;;;;;;4937310;28;20039;-78
2022/05/15 11:27:47;;;;;;;6.38;2.38;;;28.90;40.10;;;;;;4936946;29;20174;-78
2022/05/15 11:30:30;;;;;;;5.90;1.92;;;28.80;39.90;;;;;;4921446;28;20486;-78
2022/05/15 11:33:08;;;;;;;7.97;2.60;;;28.70;39.50;;;;;;4921132;29;20410;-78
2022/05/15 11:36:01;;;;;;;6.78;2.58;;;28.50;39.20;;;;;;4920960;29;20050;-77
2022/05/15 11:38:31;;;;;;;9.73;2.63;;;28.10;41.20;;;;;;4920463;28;20054;-78
2022/05/15 11:41:00;;;;;;;7.85;2.42;;;28.50;41.40;;;;;;4921192;29;20540;-78
2022/05/15 11:43:29;;;;;;;6.25;2.72;;;28.70;39.70;;;;;;4936870;29;20186;-77
2022/05/15 11:46:42;;;;;;;10.20;2.75;;;28.50;40.50;;;;;;4936593;29;20540;-77
2022/05/15 11:49:27;;;;;;;7.22;2.22;;;28.90;42.30;;;;;;4930690;29;20074;-79
2022/05/15 11:52:13;;;;;;;8.13;2.75;;;29.40;40.00;;;;;;4920869;29;20561;-78
2022/05/15 11:54:50;;;;;;;5.80;2.47;;;29.60;40.70;;;;;;4952678;28;20082;-77
2022/05/15 11:57:45;;;;;;;6.70;2.15;;;29.80;40.10;;;;;;4937030;28;20035;-78
2022/05/15 12:00:31;;;;;;;6.57;2.47;;;29.80;39.10;;;;;;4924309;29;20142;-78
2022/05/15 12:03:01;;;;;;;7.38;2.65;;;29.60;38.80;;;;;;4920645;29;20047;-79
2022/05/15 12:06:07;;;;;;;8.00;2.67;;;29.30;38.70;;;;;;4920271;28;20051;-78
2022/05/15 12:08:35;;;;;;;6.95;2.35;;;29.10;39.40;;;;;;4920398;29;20039;-78
2022/05/15 12:11:49;;;;;;;7.90;2.38;;;28.80;39.00;;;;;;4920616;29;20093;-78
2022/05/15 12:14:33;;;;;;;10.00;2.75;;;28.60;40.10;;;;;;4925109;29;20122;-77
2022/05/15 12:17:29;;;;;;;7.95;2.38;;;28.50;40.70;;;;;;4936346;29;20054;-78
2022/05/15 12:20:18;;;;;;;8.52;2.60;;;28.70;40.10;;;;;;4936407;29;20116;-78
2022/05/15 12:23:01;;;;;;;7.43;2.40;;;28.70;38.80;;;;;;4921230;29;20047;-78
2022/05/15 12:25:31;;;;;;;7.25;2.40;;;28.10;39.30;;;;;;4936182;29;20043;-78
2022/05/15 12:30:50;;;;;;;5.85;2.35;;;28.10;40.10;;;;;;4952352;28;20098;-77
2022/05/15 12:33:24;;;;;;;7.22;2.47;;;28.00;40.10;;;;;;4936329;29;20350;-78
2022/05/15 12:35:51;;;;;;;5.15;2.30;;;28.10;40.80;;;;;;4936104;29;20057;-77
2022/05/15 12:38:25;;;;;;;7.35;2.60;;;28.30;39.30;;;;;;4920322;29;20133;-78
2022/05/15 12:41:18;;;;;;;7.22;2.60;;;28.10;39.60;;;;;;4920196;28;20050;-77
2022/05/15 12:43:45;;;;;;;;;;;28.30;40.60;;;;;;4936481;29;20043;-79
2022/05/15 12:46:29;;;;;;;6.20;2.40;;;28.40;39.50;;;;;;4951977;28;19925;-78
2022/05/15 12:48:58;;;;;;;8.00;2.42;;;28.30;39.20;;;;;;4935349;29;20521;-78
2022/05/15 12:51:32;;;;;;;5.50;2.50;;;27.90;39.20;;;;;;4919493;28;20090;-79
2022/05/15 12:54:05;;;;;;;8.57;2.38;;;27.70;40.30;;;;;;4952009;28;20051;-77
2022/05/15 12:56:38;;;;;;;7.22;2.17;;;27.90;40.40;;;;;;4920295;29;20039;-79
2022/05/15 12:59:12;;;;;;;6.15;2.38;;;28.30;40.90;;;;;;4920033;29;20050;-78
2022/05/15 13:01:38;;;;;;;6.65;2.30;;;28.50;40.70;;;;;;4936042;28;20075;-77
2022/05/15 13:04:06;;;;;;;8.48;2.60;;;28.90;40.30;;;;;;4936036;29;20074;-78
2022/05/15 13:06:39;;;;;;;6.95;2.42;;;29.30;40.70;;;;;;4920397;29;20054;-81
2022/05/15 13:09:10;;;;;;;8.15;2.53;;;29.60;39.10;;;;;;4936076;29;20047;-78
2022/05/15 13:11:50;;;;;;;9.10;2.72;;;29.40;38.30;;;;;;4951957;28;20086;-79
2022/05/15 13:14:31;;;;;;;7.05;2.50;;;29.00;38.80;;;;;;4920005;28;20047;-78
2022/05/15 13:17:00;;;;;;;6.82;2.60;;;29.00;40.00;;;;;;4920244;29;20090;-78
2022/05/15 13:19:36;;;;;;;6.90;2.15;;;29.40;40.40;;;;;;4918660;29;20051;-81
2022/05/15 13:22:03;;;;;;;7.72;2.55;;;29.90;38.70;;;;;;4920231;29;20043;-78
2022/05/15 13:24:31;;;;;;;8.63;2.25;;;29.90;37.40;;;;;;4951963;28;20035;-80
2022/05/15 13:26:58;;;;;;;4.78;2.13;;;29.80;37.30;;;;;;4919388;29;20059;-77
2022/05/15 13:29:31;;;;;;;6.03;2.20;;;29.50;37.30;;;;;;4936074;29;20090;-78
2022/05/15 13:32:00;;;;;;;6.38;2.25;;;29.00;37.50;;;;;;4936152;29;20107;-78
2022/05/15 13:34:27;;;;;;;5.45;2.20;;;28.60;38.00;;;;;;4919869;28;20043;-78
2022/05/15 13:37:01;;;;;;;8.80;2.55;;;28.30;38.40;;;;;;4920006;29;20050;-78
2022/05/15 13:45:18;;;;;;;;;;;28.20;40.60;;;;;;4951918;28;19918;-79